createdAt,value
2017-11-17T00:01:31.050Z,19.65
2017-11-17T00:03:58.212Z,20.92
2017-11-17T00:06:25.377Z,23.05
2017-11-17T00:08:51.824Z,20.37
2017-11-17T00:11:18.309Z,20.67
2017-11-17T00:13:44.738Z,20.80
2017-11-17T00:16:11.126Z,21.08
2017-11-17T00:18:37.588Z,21.15
2017-11-17T00:21:03.992Z,21.83
2017-11-17T00:23:30.451Z,21.25
2017-11-17T00:25:56.869Z,20.10
2017-11-17T00:28:23.271Z,22.58
2017-11-17T00:30:49.745Z,24.17
2017-11-17T00:33:16.173Z,22.40
2017-11-17T00:35:42.601Z,22.20
2017-11-17T00:38:09.028Z,22.13
2017-11-17T00:40:35.447Z,22.65
2017-11-17T00:43:01.918Z,22.00
2017-11-17T00:45:28.356Z,24.12
2017-11-17T00:47:54.801Z,22.90
2017-11-17T00:50:21.203Z,23.52
2017-11-17T00:52:47.654Z,23.15
2017-11-17T00:55:14.070Z,23.70
2017-11-17T00:57:40.497Z,22.80
2017-11-17T01:00:07.639Z,22.77
2017-11-17T01:02:34.141Z,24.70
2017-11-17T01:05:00.551Z,25.15
2017-11-17T01:07:26.938Z,22.85
2017-11-17T01:09:53.375Z,23.80
2017-11-17T01:12:19.825Z,22.15
2017-11-17T01:14:46.237Z,24.50
2017-11-17T01:17:12.658Z,22.60
2017-11-17T01:19:39.069Z,23.38
2017-11-17T01:22:05.569Z,26.00
2017-11-17T01:24:31.998Z,23.52
2017-11-17T01:26:58.411Z,22.60
2017-11-17T01:29:24.845Z,24.60
2017-11-17T01:31:51.296Z,23.80
2017-11-17T01:34:17.720Z,23.30
2017-11-17T01:36:44.151Z,23.50
2017-11-17T01:39:10.606Z,23.90
2017-11-17T01:41:37.861Z,22.52
2017-11-17T01:44:04.306Z,24.63
2017-11-17T01:46:31.508Z,22.05
2017-11-17T01:48:57.917Z,25.90
2017-11-17T01:51:24.414Z,24.87
2017-11-17T01:53:50.842Z,25.42
2017-11-17T01:56:17.273Z,25.08
2017-11-17T01:58:43.768Z,26.00
2017-11-17T02:01:10.223Z,23.02
2017-11-17T02:03:37.444Z,27.35
2017-11-17T02:06:03.880Z,26.30
2017-11-17T02:08:30.276Z,30.12
2017-11-17T02:10:56.713Z,27.75
2017-11-17T02:13:23.939Z,30.67
2017-11-17T02:15:50.382Z,25.95
2017-11-17T02:18:16.809Z,24.30
2017-11-17T02:20:43.249Z,22.90
2017-11-17T02:23:09.804Z,21.37
2017-11-17T02:25:37.000Z,22.98
2017-11-17T02:28:03.485Z,22.10
2017-11-17T02:30:30.701Z,20.85
2017-11-17T02:32:57.198Z,23.60
2017-11-17T02:35:23.773Z,24.35
2017-11-17T02:37:50.241Z,22.02
2017-11-17T02:40:17.452Z,22.70
2017-11-17T02:42:43.980Z,23.98
2017-11-17T02:45:10.967Z,24.92
2017-11-17T02:47:37.428Z,25.85
2017-11-17T02:50:03.871Z,24.60
2017-11-17T02:52:30.404Z,24.92
2017-11-17T02:54:56.861Z,22.77
2017-11-17T02:57:23.328Z,26.65
2017-11-17T02:59:49.802Z,27.08
2017-11-17T03:02:16.325Z,25.92
2017-11-17T03:04:43.614Z,25.05
2017-11-17T03:07:10.049Z,23.60
2017-11-17T03:09:36.494Z,24.60
2017-11-17T03:12:02.976Z,23.80
2017-11-17T03:14:30.149Z,24.63
2017-11-17T03:16:56.552Z,23.90
2017-11-17T03:19:23.714Z,24.65
2017-11-17T03:21:51.005Z,23.65
2017-11-17T03:24:17.458Z,23.90
2017-11-17T03:26:43.917Z,24.00
2017-11-17T03:29:11.149Z,25.40
2017-11-17T03:31:37.690Z,24.00
2017-11-17T03:34:04.157Z,22.95
2017-11-17T03:36:30.550Z,24.48
2017-11-17T03:38:56.963Z,23.45
2017-11-17T03:41:23.433Z,24.65
2017-11-17T03:43:49.850Z,24.45
2017-11-17T03:46:16.309Z,24.42
2017-11-17T03:48:43.472Z,22.02
2017-11-17T03:51:10.621Z,24.35
2017-11-17T03:53:37.801Z,23.05
2017-11-17T03:56:04.245Z,24.08
2017-11-17T03:58:30.761Z,22.95
2017-11-17T04:00:57.178Z,23.40
2017-11-17T04:03:23.684Z,24.80
2017-11-17T04:05:50.132Z,23.00
2017-11-17T04:08:17.365Z,24.08
2017-11-17T04:10:43.845Z,22.98
2017-11-17T04:13:10.379Z,24.08
2017-11-17T04:15:36.833Z,23.65
2017-11-17T04:18:03.300Z,24.75
2017-11-17T04:20:29.724Z,25.17
2017-11-17T04:22:56.297Z,25.65
2017-11-17T04:25:23.467Z,24.98
2017-11-17T04:27:56.944Z,23.65
2017-11-17T04:30:24.106Z,23.62
2017-11-17T04:32:50.593Z,25.15
2017-11-17T04:35:17.016Z,24.02
2017-11-17T04:37:44.168Z,24.67
2017-11-17T04:40:10.663Z,23.75
2017-11-17T04:42:37.126Z,23.15
2017-11-17T04:45:03.584Z,23.75
2017-11-17T04:47:30.010Z,24.83
2017-11-17T04:49:56.446Z,21.90
2017-11-17T04:52:22.901Z,23.95
2017-11-17T04:54:50.093Z,23.40
2017-11-17T04:57:16.553Z,23.67
2017-11-17T04:59:42.984Z,25.35
2017-11-17T05:02:09.477Z,23.83
2017-11-17T05:04:35.869Z,22.85
2017-11-17T05:07:02.288Z,23.33
2017-11-17T05:09:28.728Z,23.75
2017-11-17T05:11:55.245Z,21.70
2017-11-17T05:14:21.667Z,24.45
2017-11-17T05:16:48.127Z,22.25
2017-11-17T05:19:14.541Z,23.25
2017-11-17T05:21:41.009Z,24.83
2017-11-17T05:24:07.442Z,25.23
2017-11-17T05:26:33.864Z,24.35
2017-11-17T05:29:00.317Z,25.35
2017-11-17T05:31:27.545Z,26.05
2017-11-17T05:33:54.033Z,22.45
2017-11-17T05:36:20.518Z,24.37
2017-11-17T05:38:47.064Z,22.67
2017-11-17T05:41:13.552Z,21.98
2017-11-17T05:43:39.976Z,26.17
2017-11-17T05:46:06.425Z,24.27
2017-11-17T05:48:32.834Z,22.83
2017-11-17T05:50:59.240Z,25.83
2017-11-17T05:53:26.462Z,25.40
2017-11-17T05:55:52.898Z,24.98
2017-11-17T05:58:19.709Z,25.98
2017-11-17T06:00:46.211Z,24.25
2017-11-17T06:03:13.437Z,23.83
2017-11-17T06:05:40.113Z,23.50
2017-11-17T06:08:06.656Z,24.60
2017-11-17T06:10:33.217Z,25.10
2017-11-17T06:12:59.940Z,25.40
2017-11-17T06:15:26.848Z,24.90
2017-11-17T06:17:53.286Z,26.08
2017-11-17T06:20:19.697Z,25.60
2017-11-17T06:22:47.425Z,25.98
2017-11-17T06:25:14.825Z,24.27
2017-11-17T06:27:42.149Z,26.40
2017-11-17T06:30:08.648Z,25.12
2017-11-17T06:32:35.267Z,22.45
2017-11-17T06:35:01.722Z,23.10
2017-11-17T06:37:28.220Z,23.05
2017-11-17T06:39:54.872Z,22.92
2017-11-17T06:42:21.396Z,22.83
2017-11-17T06:44:48.539Z,23.60
2017-11-17T06:47:15.197Z,24.75
2017-11-17T06:49:41.693Z,23.50
2017-11-17T06:52:08.136Z,23.02
2017-11-17T06:54:34.546Z,22.77
2017-11-17T06:57:00.977Z,23.77
2017-11-17T06:59:27.664Z,25.35
2017-11-17T07:01:54.912Z,23.65
2017-11-17T07:04:21.328Z,24.83
2017-11-17T07:06:47.760Z,24.37
2017-11-17T07:09:14.231Z,23.15
2017-11-17T07:11:40.702Z,24.98
2017-11-17T07:14:07.149Z,24.90
2017-11-17T07:16:33.589Z,24.37
2017-11-17T07:19:00.293Z,26.35
2017-11-17T07:21:26.901Z,23.00
2017-11-17T07:23:53.295Z,26.55
2017-11-17T07:26:19.713Z,27.77
2017-11-17T07:28:46.133Z,26.70
2017-11-17T07:31:12.560Z,26.17
2017-11-17T07:33:38.995Z,27.75
2017-11-17T07:36:05.424Z,29.25
2017-11-17T07:38:31.864Z,29.42
2017-11-17T07:40:58.312Z,30.42
2017-11-17T07:43:24.739Z,28.67
2017-11-17T07:45:51.262Z,30.35
2017-11-17T07:48:17.954Z,29.70
2017-11-17T07:50:45.140Z,32.38
2017-11-17T07:53:11.619Z,29.17
2017-11-17T07:55:38.225Z,27.48
2017-11-17T07:58:04.772Z,31.62
2017-11-17T08:00:31.381Z,30.88
2017-11-17T08:02:57.845Z,31.75
2017-11-17T08:05:25.025Z,30.33
2017-11-17T08:07:51.428Z,33.97
2017-11-17T08:10:17.889Z,31.25
2017-11-17T08:12:44.393Z,30.42
2017-11-17T08:15:10.841Z,34.00
2017-11-17T08:17:49.425Z,33.80
2017-11-17T08:20:15.943Z,33.47
2017-11-17T08:22:42.438Z,32.58
2017-11-17T08:25:08.860Z,30.45
2017-11-17T08:27:35.306Z,33.70
2017-11-17T08:30:01.726Z,35.55
2017-11-17T08:32:28.169Z,33.30
2017-11-17T08:35:01.597Z,32.92
2017-11-17T08:37:29.001Z,35.42
2017-11-17T08:39:55.790Z,37.10
2017-11-17T08:42:22.316Z,35.83
2017-11-17T08:44:49.462Z,33.47
2017-11-17T08:47:16.393Z,35.72
2017-11-17T08:49:43.752Z,39.55
2017-11-17T08:52:10.296Z,38.13
2017-11-17T08:54:37.056Z,35.10
2017-11-17T08:57:03.545Z,36.15
2017-11-17T08:59:30.153Z,36.60
2017-11-17T09:01:56.662Z,34.50
2017-11-17T09:04:23.826Z,34.45
2017-11-17T09:06:50.252Z,33.67
2017-11-17T09:09:16.656Z,34.42
2017-11-17T09:11:43.165Z,32.63
2017-11-17T09:14:09.604Z,36.25
2017-11-17T09:16:36.014Z,35.38
2017-11-17T09:19:02.449Z,37.22
2017-11-17T09:21:29.861Z,36.25
2017-11-17T09:23:59.987Z,36.85
2017-11-17T09:26:26.436Z,34.28
2017-11-17T09:28:52.872Z,38.80
2017-11-17T09:31:19.347Z,34.10
2017-11-17T09:33:45.752Z,35.33
2017-11-17T09:36:12.196Z,36.40
2017-11-17T09:38:38.663Z,33.90
2017-11-17T09:41:05.481Z,36.28
2017-11-17T09:43:32.672Z,37.53
2017-11-17T09:45:59.889Z,35.65
2017-11-17T09:48:26.318Z,34.35
2017-11-17T09:50:52.769Z,35.97
2017-11-17T09:53:19.477Z,37.08
2017-11-17T09:55:45.897Z,37.65
2017-11-17T09:58:12.341Z,35.13
2017-11-17T10:00:38.778Z,35.33
2017-11-17T10:03:05.280Z,32.53
2017-11-17T10:05:31.697Z,30.35
2017-11-17T10:07:58.353Z,34.15
2017-11-17T10:10:25.614Z,33.63
2017-11-17T10:12:52.136Z,34.42
2017-11-17T10:15:18.554Z,33.00
2017-11-17T10:17:45.777Z,34.17
2017-11-17T10:20:12.288Z,36.15
2017-11-17T10:22:38.767Z,35.65
2017-11-17T10:25:06.221Z,37.80
2017-11-17T10:27:32.817Z,37.13
2017-11-17T10:29:59.347Z,39.45
2017-11-17T10:32:25.852Z,38.85
2017-11-17T10:34:52.503Z,38.58
2017-11-17T10:37:18.965Z,37.33
2017-11-17T10:39:45.509Z,38.80
2017-11-17T10:42:15.356Z,33.90
2017-11-17T10:44:42.509Z,41.40
2017-11-17T10:47:09.747Z,39.63
2017-11-17T10:49:36.192Z,41.05
2017-11-17T10:52:03.473Z,39.15
2017-11-17T10:54:29.889Z,39.30
2017-11-17T10:56:57.097Z,39.28
2017-11-17T10:59:23.590Z,40.60
2017-11-17T11:01:50.116Z,41.35
2017-11-17T11:04:16.558Z,42.20
2017-11-17T11:06:43.020Z,42.35
2017-11-17T11:09:09.506Z,37.38
2017-11-17T11:11:42.052Z,37.30
2017-11-17T11:14:08.869Z,41.55
2017-11-17T11:16:36.145Z,42.17
2017-11-17T11:19:02.718Z,40.97
2017-11-17T11:21:29.215Z,39.30
2017-11-17T11:23:55.656Z,39.15
2017-11-17T11:26:22.136Z,41.22
2017-11-17T11:28:48.582Z,41.83
2017-11-17T11:31:15.045Z,42.45
2017-11-17T11:33:41.503Z,43.30
2017-11-17T11:36:08.816Z,42.70
2017-11-17T11:38:35.292Z,46.15
2017-11-17T11:41:02.482Z,44.72
2017-11-17T11:43:32.280Z,43.55
2017-11-17T11:45:59.165Z,42.05
2017-11-17T11:48:25.634Z,44.17
2017-11-17T11:50:52.811Z,42.25
2017-11-17T11:53:19.302Z,43.22
2017-11-17T11:55:45.734Z,42.03
2017-11-17T11:58:12.149Z,44.00
2017-11-17T12:00:38.637Z,42.75
2017-11-17T12:03:05.130Z,44.03
2017-11-17T12:05:31.548Z,43.10
2017-11-17T12:07:58.045Z,44.53
2017-11-17T12:10:24.464Z,40.20
2017-11-17T12:12:51.664Z,44.15
2017-11-17T12:15:18.097Z,49.63
2017-11-17T12:17:44.541Z,44.40
2017-11-17T12:20:10.963Z,43.63
2017-11-17T12:22:37.570Z,47.08
2017-11-17T12:25:04.034Z,42.92
2017-11-17T12:27:30.797Z,44.85
2017-11-17T12:29:57.241Z,45.92
2017-11-17T12:32:24.482Z,42.90
2017-11-17T12:34:50.900Z,44.60
2017-11-17T12:37:17.355Z,46.33
2017-11-17T12:39:43.753Z,43.30
2017-11-17T12:42:10.213Z,43.28
2017-11-17T12:44:36.646Z,43.38
2017-11-17T12:47:03.068Z,39.97
2017-11-17T12:49:29.465Z,41.70
2017-11-17T12:51:56.076Z,43.45
2017-11-17T12:54:22.644Z,53.30
2017-11-17T12:56:49.036Z,45.55
2017-11-17T12:59:15.438Z,43.85
2017-11-17T13:01:41.984Z,42.28
2017-11-17T13:04:08.364Z,40.92
2017-11-17T13:06:34.793Z,41.88
2017-11-17T13:09:01.464Z,40.12
2017-11-17T13:11:28.708Z,43.20
2017-11-17T13:13:55.321Z,42.55
2017-11-17T13:16:21.962Z,44.83
2017-11-17T13:18:48.426Z,45.47
2017-11-17T13:21:14.883Z,40.35
2017-11-17T13:23:41.409Z,42.15
2017-11-17T13:26:08.604Z,42.15
2017-11-17T13:28:35.913Z,45.40
2017-11-17T13:31:03.167Z,48.50
2017-11-17T13:33:30.436Z,46.50
2017-11-17T13:35:56.949Z,46.35
2017-11-17T13:38:23.344Z,46.40
2017-11-17T13:40:49.768Z,43.40
2017-11-17T13:43:16.365Z,43.20
2017-11-17T13:45:43.561Z,39.33
2017-11-17T13:48:09.960Z,40.38
2017-11-17T13:50:36.389Z,41.53
2017-11-17T13:53:02.927Z,45.28
2017-11-17T13:55:29.346Z,42.45
2017-11-17T13:57:55.768Z,44.60
2017-11-17T14:00:22.179Z,42.50
2017-11-17T14:02:48.620Z,40.28
2017-11-17T14:05:15.058Z,42.60
2017-11-17T14:07:41.452Z,39.15
2017-11-17T14:10:07.844Z,37.40
2017-11-17T14:12:34.361Z,37.00
2017-11-17T14:15:00.796Z,35.72
2017-11-17T14:17:27.197Z,37.83
2017-11-17T14:19:53.625Z,35.67
2017-11-17T14:22:20.082Z,37.72
2017-11-17T14:24:46.529Z,37.72
2017-11-17T14:27:12.966Z,39.22
2017-11-17T14:29:39.417Z,38.17
2017-11-17T14:32:05.843Z,38.33
2017-11-17T14:34:32.305Z,36.08
2017-11-17T14:36:59.502Z,38.25
2017-11-17T14:39:25.973Z,36.55
2017-11-17T14:41:52.506Z,36.33
2017-11-17T14:44:18.950Z,39.80
2017-11-17T14:46:46.102Z,34.80
2017-11-17T14:49:13.233Z,37.38
2017-11-17T14:51:39.761Z,39.22
2017-11-17T14:54:06.193Z,35.40
2017-11-17T14:56:32.598Z,40.12
2017-11-17T14:58:59.011Z,37.07
2017-11-17T15:01:25.555Z,40.63
2017-11-17T15:03:52.002Z,38.20
2017-11-17T15:06:18.481Z,39.10
2017-11-17T15:08:44.910Z,38.78
2017-11-17T15:11:11.352Z,39.72
2017-11-17T15:13:38.501Z,41.10
2017-11-17T15:16:05.673Z,38.85
2017-11-17T15:18:32.134Z,36.55
2017-11-17T15:20:58.582Z,36.90
2017-11-17T15:23:25.081Z,39.10
2017-11-17T15:25:51.557Z,40.90
2017-11-17T15:28:18.004Z,39.45
2017-11-17T15:30:44.465Z,35.65
2017-11-17T15:33:11.705Z,40.03
2017-11-17T15:35:38.948Z,39.35
2017-11-17T15:38:05.440Z,38.10
2017-11-17T15:40:31.921Z,39.67
2017-11-17T15:42:58.466Z,37.47
2017-11-17T15:45:25.664Z,35.58
2017-11-17T15:47:52.121Z,39.25
2017-11-17T15:50:18.617Z,38.67
2017-11-17T15:52:45.064Z,40.22
2017-11-17T15:55:11.533Z,37.83
2017-11-17T15:57:37.980Z,37.22
2017-11-17T16:00:05.170Z,39.20
2017-11-17T16:02:31.616Z,37.42
2017-11-17T16:04:58.040Z,39.75
2017-11-17T16:07:24.477Z,42.65
2017-11-17T16:09:50.945Z,43.85
2017-11-17T16:12:17.380Z,43.05
2017-11-17T16:14:43.821Z,46.53
2017-11-17T16:17:10.281Z,46.47
2017-11-17T16:19:37.464Z,39.33
2017-11-17T16:22:03.955Z,40.22
2017-11-17T16:24:31.125Z,39.50
2017-11-17T16:26:57.561Z,44.95
2017-11-17T16:29:23.994Z,43.45
2017-11-17T16:31:50.509Z,44.05
2017-11-17T16:34:16.969Z,43.17
2017-11-17T16:36:43.438Z,43.20
2017-11-17T16:39:09.857Z,39.35
2017-11-17T16:41:36.309Z,42.35
2017-11-17T16:44:03.505Z,42.47
2017-11-17T16:46:30.004Z,41.83
2017-11-17T16:48:56.479Z,43.97
2017-11-17T16:51:23.705Z,41.70
2017-11-17T16:53:51.080Z,43.75
2017-11-17T16:56:18.309Z,40.33
2017-11-17T16:58:44.728Z,42.38
2017-11-17T17:01:11.486Z,43.63
2017-11-17T17:03:37.961Z,42.78
2017-11-17T17:06:04.549Z,40.35
2017-11-17T17:08:30.970Z,43.38
2017-11-17T17:10:57.417Z,41.13
2017-11-17T17:13:23.877Z,42.80
2017-11-17T17:15:50.341Z,41.13
2017-11-17T17:18:16.804Z,46.20
2017-11-17T17:20:43.289Z,42.60
2017-11-17T17:23:10.057Z,36.95
2017-11-17T17:25:36.657Z,41.22
2017-11-17T17:28:10.527Z,37.88
2017-11-17T17:30:37.045Z,37.50
2017-11-17T17:33:03.542Z,38.80
2017-11-17T17:35:30.078Z,39.97
2017-11-17T17:37:56.501Z,40.20
2017-11-17T17:40:23.630Z,37.83
2017-11-17T17:42:50.069Z,41.47
2017-11-17T17:45:16.536Z,39.92
2017-11-17T17:47:43.942Z,41.67
2017-11-17T17:50:11.197Z,37.15
2017-11-17T17:52:38.444Z,40.65
2017-11-17T17:55:04.904Z,41.63
2017-11-17T17:57:32.081Z,38.67
2017-11-17T17:59:58.574Z,42.42
2017-11-17T18:02:25.817Z,37.92
2017-11-17T18:04:52.280Z,38.35
2017-11-17T18:07:19.457Z,40.22
2017-11-17T18:09:45.896Z,41.78
2017-11-17T18:12:12.333Z,44.22
2017-11-17T18:14:38.812Z,45.85
2017-11-17T18:17:05.247Z,46.80
2017-11-17T18:19:31.697Z,42.80
2017-11-17T18:21:59.000Z,45.50
2017-11-17T18:24:26.151Z,45.55
2017-11-17T18:26:52.561Z,45.85
2017-11-17T18:29:19.083Z,45.83
2017-11-17T18:31:45.561Z,44.45
2017-11-17T18:36:45.844Z,45.22
2017-11-17T18:39:13.004Z,45.70
2017-11-17T18:41:39.642Z,48.25
2017-11-17T18:44:06.070Z,45.72
2017-11-17T18:46:32.492Z,44.88
2017-11-17T18:48:59.666Z,43.60
2017-11-17T18:51:26.124Z,43.65
2017-11-17T18:53:52.574Z,48.75
2017-11-17T18:56:18.993Z,45.40
2017-11-17T18:58:45.420Z,40.22
2017-11-17T19:01:18.812Z,42.08
2017-11-17T19:03:45.229Z,42.92
2017-11-17T19:06:11.713Z,41.45
2017-11-17T19:08:38.103Z,42.90
2017-11-17T19:11:04.639Z,43.83
2017-11-17T19:13:31.087Z,42.45
2017-11-17T19:15:57.518Z,39.50
2017-11-17T19:18:23.933Z,44.95
2017-11-17T19:20:50.345Z,45.85
2017-11-17T19:23:17.537Z,46.28
2017-11-17T19:25:43.942Z,42.10
2017-11-17T19:28:10.945Z,44.08
2017-11-17T19:30:37.431Z,44.95
2017-11-17T19:33:03.878Z,41.13
2017-11-17T19:35:30.312Z,42.88
2017-11-17T19:37:56.722Z,40.55
2017-11-17T19:40:23.209Z,42.65
2017-11-17T19:42:49.714Z,46.60
2017-11-17T19:45:16.179Z,38.42
2017-11-17T19:47:43.389Z,44.47
2017-11-17T19:50:09.792Z,43.13
2017-11-17T19:52:37.363Z,44.78
2017-11-17T19:55:03.828Z,40.50
2017-11-17T19:57:30.281Z,42.58
2017-11-17T19:59:56.721Z,42.05
2017-11-17T20:02:23.173Z,41.45
2017-11-17T20:04:49.585Z,38.20
2017-11-17T20:07:16.021Z,39.38
2017-11-17T20:09:42.469Z,39.72
2017-11-17T20:12:08.889Z,41.97
2017-11-17T20:14:35.301Z,42.00
2017-11-17T20:17:01.741Z,39.08
2017-11-17T20:19:28.161Z,38.42
2017-11-17T20:21:54.557Z,39.08
2017-11-17T20:24:21.020Z,38.95
2017-11-17T20:26:47.509Z,39.47
2017-11-17T20:29:14.876Z,40.75
2017-11-17T20:31:42.106Z,37.90
2017-11-17T20:34:09.313Z,39.00
2017-11-17T20:36:35.759Z,36.88
2017-11-17T20:39:02.248Z,39.63
2017-11-17T20:41:28.647Z,37.85
2017-11-17T20:43:55.562Z,40.17
2017-11-17T20:46:22.160Z,37.75
2017-11-17T20:48:48.629Z,40.90
2017-11-17T20:51:15.065Z,39.78
2017-11-17T20:53:41.488Z,38.30
2017-11-17T20:56:07.941Z,38.20
2017-11-17T20:58:34.351Z,40.05
2017-11-17T21:01:00.788Z,37.20
2017-11-17T21:03:27.433Z,41.78
2017-11-17T21:05:53.856Z,36.63
2017-11-17T21:08:21.238Z,35.50
2017-11-17T21:10:47.936Z,36.40
2017-11-17T21:13:14.649Z,34.42
2017-11-17T21:15:42.129Z,34.00
2017-11-17T21:18:08.577Z,35.60
2017-11-17T21:20:34.997Z,35.65
2017-11-17T21:23:01.409Z,35.92
2017-11-17T21:25:28.789Z,35.85
2017-11-17T21:27:55.345Z,36.78
2017-11-17T21:30:21.772Z,38.00
2017-11-17T21:32:48.457Z,33.83
2017-11-17T21:35:14.945Z,36.50
2017-11-17T21:37:41.477Z,39.03
2017-11-17T21:40:07.928Z,36.35
2017-11-17T21:42:34.853Z,39.72
2017-11-17T21:45:02.197Z,33.50
2017-11-17T21:47:28.686Z,35.45
2017-11-17T21:49:55.934Z,39.88
2017-11-17T21:52:22.506Z,37.42
2017-11-17T21:54:48.992Z,32.45
2017-11-17T21:57:15.446Z,34.35
2017-11-17T21:59:42.049Z,33.15
2017-11-17T22:02:08.616Z,31.70
2017-11-17T22:04:35.033Z,32.38
2017-11-17T22:07:01.621Z,34.13
2017-11-17T22:09:28.063Z,33.83
2017-11-17T22:11:55.314Z,33.08
2017-11-17T22:14:21.722Z,33.90
2017-11-17T22:16:48.913Z,32.95
2017-11-17T22:19:15.321Z,34.08
2017-11-17T22:21:41.761Z,36.83
2017-11-17T22:24:08.188Z,34.65
2017-11-17T22:26:35.305Z,35.58
2017-11-17T22:29:01.704Z,32.05
2017-11-17T22:31:28.145Z,33.80
2017-11-17T22:33:54.583Z,34.70
2017-11-17T22:36:21.052Z,36.83
2017-11-17T22:38:48.320Z,34.95
2017-11-17T22:41:14.892Z,33.83
2017-11-17T22:43:41.313Z,37.25
2017-11-17T22:46:07.779Z,39.00
2017-11-17T22:48:34.221Z,35.70
2017-11-17T22:51:00.652Z,37.47
2017-11-17T22:53:27.138Z,35.38
2017-11-17T22:55:53.545Z,34.95
2017-11-17T22:58:20.908Z,36.70
2017-11-17T23:00:48.078Z,32.47
2017-11-17T23:03:14.510Z,34.45
2017-11-17T23:05:40.941Z,35.88
2017-11-17T23:08:07.349Z,34.33
2017-11-17T23:10:34.516Z,35.80
2017-11-17T23:13:01.048Z,32.95
2017-11-17T23:15:27.477Z,31.42
2017-11-17T23:17:54.629Z,31.35
2017-11-17T23:20:21.084Z,33.28
2017-11-17T23:22:47.485Z,34.47
2017-11-17T23:25:14.657Z,31.87
2017-11-17T23:27:41.651Z,35.28
2017-11-17T23:30:08.087Z,32.88
2017-11-17T23:32:34.517Z,36.10
2017-11-17T23:35:00.982Z,35.22
2017-11-17T23:37:28.144Z,36.05
2017-11-17T23:39:55.327Z,30.70
2017-11-17T23:42:21.761Z,33.75
2017-11-17T23:44:48.185Z,32.22
2017-11-17T23:47:14.674Z,35.78
2017-11-17T23:49:41.086Z,36.25
2017-11-17T23:52:07.679Z,36.30
2017-11-17T23:54:34.965Z,34.63
2017-11-17T23:57:01.413Z,37.08
2017-11-17T23:59:27.897Z,35.90
